Time;durP1;ratioP1;P1;durP2;ratioP2;P2;SDS_P1;SDS_P2;PMS_P1;PMS_P2;Temp;Humidity;BMP_temperature;BMP_pressure;BME280_temperature;BME280_humidity;BME280_pressure;Samples;Min_cycle;Max_cycle;Signal;HPM_P1;HPM_P2
2023/09/04 00:00:33;;;;;;;3.20;2.10;;;22.40;60.20;;;;;;5083811;28;20210;-80
2023/09/04 00:03:00;;;;;;;2.38;1.80;;;22.40;60.10;;;;;;5082639;28;20223;-80
2023/09/04 00:05:27;;;;;;;2.47;1.88;;;22.30;61.00;;;;;;5083801;28;20627;-80
2023/09/04 00:07:54;;;;;;;2.15;1.95;;;22.30;60.10;;;;;;5083499;28;20209;-79
2023/09/04 00:10:21;;;;;;;2.10;2.00;;;22.40;60.10;;;;;;5083911;28;20201;-80
2023/09/04 00:12:48;;;;;;;2.33;2.13;;;22.30;60.00;;;;;;5082228;28;20206;-80
2023/09/04 00:15:15;;;;;;;2.17;1.95;;;22.30;60.00;;;;;;5085060;28;20216;-80
2023/09/04 00:17:44;;;;;;;2.67;1.95;;;22.30;60.20;;;;;;5099336;28;20185;-80
2023/09/04 00:20:12;;;;;;;2.00;1.90;;;22.30;60.10;;;;;;5104309;28;20194;-80
2023/09/04 00:22:39;;;;;;;2.40;2.20;;;22.30;60.20;;;;;;5104252;28;20242;-80
2023/09/04 00:25:07;;;;;;;2.10;2.00;;;22.30;60.20;;;;;;5104312;28;20181;-80
2023/09/04 00:27:34;;;;;;;2.15;1.95;;;22.20;60.00;;;;;;5093428;28;20198;-80
2023/09/04 00:30:02;;;;;;;2.40;2.10;;;22.20;60.00;;;;;;5050346;28;20190;-80
2023/09/04 00:32:29;;;;;;;2.20;1.90;;;22.20;60.20;;;;;;5082440;28;20218;-80
2023/09/04 00:34:58;;;;;;;2.15;1.95;;;22.20;60.00;;;;;;5081729;28;20229;-80
2023/09/04 00:37:25;;;;;;;3.00;1.88;;;22.20;59.80;;;;;;5082203;28;20207;-80
2023/09/04 00:39:52;;;;;;;2.00;1.90;;;22.20;59.90;;;;;;5081832;28;20202;-80
2023/09/04 00:42:19;;;;;;;2.20;2.00;;;22.20;59.90;;;;;;5081669;28;20214;-80
2023/09/04 00:44:49;;;;;;;2.15;2.00;;;22.20;60.00;;;;;;5082087;28;20538;-80
2023/09/04 00:47:17;;;;;;;2.70;1.90;;;22.20;60.00;;;;;;5081024;28;20195;-79
2023/09/04 00:49:45;;;;;;;1.95;1.85;;;22.20;59.80;;;;;;5081117;28;20290;-80
2023/09/04 00:52:13;;;;;;;2.28;2.08;;;22.20;60.00;;;;;;5080889;28;20225;-80
2023/09/04 00:54:40;;;;;;;2.40;1.98;;;22.10;60.00;;;;;;5081127;28;20656;-80
2023/09/04 00:57:07;;;;;;;2.00;1.80;;;22.10;59.90;;;;;;5079516;28;20190;-80
2023/09/04 00:59:34;;;;;;;1.95;1.85;;;22.10;59.90;;;;;;5080826;28;20196;-80
2023/09/04 01:02:02;;;;;;;2.67;2.00;;;22.10;59.90;;;;;;5080891;28;20214;-80
2023/09/04 01:04:29;;;;;;;3.55;2.00;;;22.10;59.90;;;;;;5081232;28;20194;-80
2023/09/04 01:06:56;;;;;;;1.80;1.70;;;22.10;60.00;;;;;;5081005;28;20265;-80
2023/09/04 01:09:24;;;;;;;2.03;1.77;;;22.00;59.90;;;;;;5081321;28;20542;-80
2023/09/04 01:11:54;;;;;;;2.28;2.08;;;22.00;59.90;;;;;;5080818;28;20283;-80
2023/09/04 01:14:21;;;;;;;2.20;2.00;;;22.00;59.90;;;;;;5081402;28;20221;-80
2023/09/04 01:16:48;;;;;;;2.50;2.30;;;22.10;59.90;;;;;;5081668;28;20218;-80
2023/09/04 01:19:17;;;;;;;2.03;1.92;;;22.00;60.00;;;;;;5063594;28;20652;-80
2023/09/04 01:21:45;;;;;;;3.65;1.90;;;22.00;59.90;;;;;;5079872;28;20224;-80
2023/09/04 01:24:13;;;;;;;2.60;1.95;;;22.00;59.80;;;;;;5079971;28;20604;-80
2023/09/04 01:26:43;;;;;;;2.22;2.10;;;22.00;59.90;;;;;;5079606;28;20198;-79
2023/09/04 01:29:12;;;;;;;2.10;1.90;;;22.00;59.80;;;;;;5079857;28;20190;-80
2023/09/04 01:31:41;;;;;;;2.47;2.00;;;22.00;59.90;;;;;;5079251;28;20616;-80
2023/09/04 01:34:10;;;;;;;2.22;2.03;;;22.00;59.80;;;;;;5080913;28;20213;-79
2023/09/04 01:36:37;;;;;;;2.00;1.90;;;22.00;59.80;;;;;;5079775;28;20200;-80
2023/09/04 01:39:06;;;;;;;2.63;1.75;;;22.00;59.80;;;;;;5079989;28;20543;-80
2023/09/04 01:41:33;;;;;;;2.40;2.03;;;22.00;59.80;;;;;;5080626;28;20214;-80
2023/09/04 01:43:59;;;;;;;2.20;2.00;;;21.90;59.70;;;;;;5079324;28;20190;-80
2023/09/04 01:46:27;;;;;;;2.05;1.95;;;21.90;59.80;;;;;;5079566;28;20198;-80
2023/09/04 01:48:54;;;;;;;2.28;2.08;;;21.90;59.70;;;;;;5081131;28;20547;-80
2023/09/04 01:51:21;;;;;;;2.47;2.05;;;21.90;59.80;;;;;;5078889;28;20228;-80
2023/09/04 01:53:48;;;;;;;2.40;2.10;;;21.90;59.70;;;;;;5078745;28;20202;-80
2023/09/04 01:56:16;;;;;;;2.83;2.03;;;21.80;59.70;;;;;;5078884;28;20202;-80
2023/09/04 01:58:43;;;;;;;2.47;2.10;;;21.90;59.80;;;;;;5078906;28;20231;-80
2023/09/04 02:01:10;;;;;;;2.42;2.20;;;21.90;59.90;;;;;;5078955;28;20229;-80
2023/09/04 02:03:37;;;;;;;2.70;2.20;;;21.90;59.90;;;;;;5079250;28;20202;-80
2023/09/04 02:06:07;;;;;;;2.30;2.10;;;21.80;59.70;;;;;;5079064;28;20228;-80
2023/09/04 02:08:34;;;;;;;2.70;2.30;;;21.80;59.70;;;;;;5080589;28;20255;-79
2023/09/04 02:11:01;;;;;;;3.63;2.33;;;21.80;59.70;;;;;;5081330;28;20225;-80
2023/09/04 02:13:30;;;;;;;2.53;2.00;;;21.80;59.60;;;;;;5079690;28;20205;-80
2023/09/04 02:15:57;;;;;;;3.28;2.25;;;21.80;59.80;;;;;;5078831;28;20217;-81
2023/09/04 02:18:24;;;;;;;2.30;2.15;;;21.80;59.70;;;;;;5078997;28;20583;-80
2023/09/04 02:20:51;;;;;;;2.88;2.47;;;21.80;59.70;;;;;;5078901;28;20214;-80
2023/09/04 02:23:18;;;;;;;3.22;2.70;;;21.80;59.80;;;;;;5079201;28;20197;-80
2023/09/04 02:25:47;;;;;;;2.50;2.30;;;21.80;59.80;;;;;;5078671;28;20186;-80
2023/09/04 02:28:14;;;;;;;2.30;2.10;;;21.80;59.80;;;;;;5078786;28;20220;-80
2023/09/04 02:30:42;;;;;;;2.40;2.20;;;21.80;59.90;;;;;;5078940;28;20590;-80
2023/09/04 02:33:09;;;;;;;2.42;2.15;;;21.80;59.80;;;;;;5079182;28;20608;-80
2023/09/04 02:35:36;;;;;;;2.60;2.40;;;21.70;59.80;;;;;;5079371;28;20217;-80
2023/09/04 02:38:03;;;;;;;2.40;2.20;;;21.70;59.90;;;;;;5070893;28;20300;-79
2023/09/04 02:40:30;;;;;;;2.58;2.38;;;21.80;59.90;;;;;;5079075;28;20230;-80
2023/09/04 02:42:57;;;;;;;2.75;2.47;;;21.70;59.80;;;;;;5078679;28;20679;-80
2023/09/04 02:45:24;;;;;;;2.60;2.40;;;21.70;59.80;;;;;;5062385;28;20198;-80
2023/09/04 02:47:53;;;;;;;2.75;2.33;;;21.60;60.40;;;;;;5079687;28;20206;-80
2023/09/04 02:50:20;;;;;;;3.38;2.50;;;21.70;59.70;;;;;;5078815;28;20194;-80
2023/09/04 02:52:46;;;;;;;3.25;2.40;;;21.70;59.80;;;;;;5078315;28;20217;-80
2023/09/04 02:55:14;;;;;;;3.10;2.33;;;21.70;59.70;;;;;;5078234;28;20214;-80
2023/09/04 02:57:41;;;;;;;3.05;2.55;;;21.60;59.70;;;;;;5078349;28;20193;-80
2023/09/04 03:00:09;;;;;;;2.47;2.28;;;21.60;59.70;;;;;;5077976;28;20663;-80
2023/09/04 03:02:36;;;;;;;2.53;2.33;;;21.60;59.70;;;;;;5061212;28;20194;-80
2023/09/04 03:05:06;;;;;;;2.42;2.20;;;21.60;59.70;;;;;;5061360;28;20194;-80
2023/09/04 03:07:34;;;;;;;3.15;2.50;;;21.60;59.70;;;;;;5077566;28;20638;-80
2023/09/04 03:10:01;;;;;;;3.45;2.20;;;21.60;59.60;;;;;;5077508;28;20194;-80
2023/09/04 03:12:31;;;;;;;2.83;2.30;;;21.60;59.50;;;;;;5077562;28;20213;-80
2023/09/04 03:14:58;;;;;;;3.72;2.55;;;21.60;59.40;;;;;;5077877;28;20296;-79
2023/09/04 03:17:27;;;;;;;3.13;2.70;;;21.60;59.20;;;;;;5077306;28;20284;-80
2023/09/04 03:19:55;;;;;;;2.85;2.65;;;21.60;59.10;;;;;;5076973;28;20641;-80
2023/09/04 03:22:23;;;;;;;2.60;2.20;;;21.60;59.10;;;;;;5077126;28;20587;-80
2023/09/04 03:24:51;;;;;;;4.15;2.60;;;21.70;59.00;;;;;;5077611;28;20191;-80
2023/09/04 03:27:20;;;;;;;3.42;2.60;;;21.60;58.70;;;;;;5077308;28;20648;-80
2023/09/04 03:29:47;;;;;;;2.78;2.40;;;21.70;59.10;;;;;;5095715;28;20255;-80
2023/09/04 03:32:15;;;;;;;4.38;2.60;;;21.70;59.10;;;;;;5077532;28;20213;-80
2023/09/04 03:34:43;;;;;;;2.60;2.40;;;21.80;59.00;;;;;;5077544;28;20234;-80
2023/09/04 03:37:10;;;;;;;2.47;2.28;;;21.70;58.70;;;;;;5077810;28;20216;-80
2023/09/04 03:39:39;;;;;;;3.08;2.45;;;21.80;58.50;;;;;;5078082;28;20193;-80
2023/09/04 03:42:07;;;;;;;3.75;2.60;;;21.90;58.20;;;;;;5078156;28;20218;-80
2023/09/04 03:44:35;;;;;;;3.03;2.30;;;21.90;58.00;;;;;;5077635;28;20686;-80
2023/09/04 03:47:02;;;;;;;2.60;2.40;;;21.90;57.80;;;;;;5077182;28;20286;-80
2023/09/04 03:49:29;;;;;;;2.80;2.55;;;21.90;57.80;;;;;;5077342;28;20289;-80
2023/09/04 03:51:56;;;;;;;3.45;2.92;;;21.90;57.70;;;;;;5076811;28;20221;-80
2023/09/04 03:54:23;;;;;;;3.15;2.47;;;21.90;57.70;;;;;;5076522;28;20202;-80
2023/09/04 03:56:52;;;;;;;2.95;2.30;;;21.90;58.10;;;;;;5077723;28;20194;-80
2023/09/04 03:59:19;;;;;;;2.50;2.30;;;21.90;58.10;;;;;;5076862;28;20294;-80
2023/09/04 04:01:46;;;;;;;3.40;2.33;;;21.80;58.00;;;;;;5061398;28;20210;-80
2023/09/04 04:04:14;;;;;;;5.70;2.40;;;21.80;58.00;;;;;;5077462;28;20202;-80
2023/09/04 04:06:41;;;;;;;2.72;2.50;;;21.90;58.10;;;;;;5077154;28;20194;-80
2023/09/04 04:09:10;;;;;;;3.92;2.47;;;21.90;58.10;;;;;;5060273;28;20598;-80
2023/09/04 04:11:37;;;;;;;2.42;2.22;;;21.90;58.00;;;;;;5076739;28;20214;-80
2023/09/04 04:14:06;;;;;;;2.85;2.60;;;21.80;58.00;;;;;;5076852;28;20288;-79
2023/09/04 04:16:34;;;;;;;3.22;2.28;;;21.80;58.00;;;;;;5082887;28;20241;-80
2023/09/04 04:19:01;;;;;;;3.17;2.40;;;21.80;57.90;;;;;;5078540;28;20198;-80
2023/09/04 04:21:29;;;;;;;3.08;2.65;;;21.70;57.80;;;;;;5077389;28;20592;-80
2023/09/04 04:23:56;;;;;;;2.63;2.42;;;21.70;57.80;;;;;;5077973;28;20617;-80
2023/09/04 04:26:23;;;;;;;3.75;2.30;;;21.70;57.80;;;;;;5077145;28;20632;-79
2023/09/04 04:28:50;;;;;;;3.20;2.60;;;21.70;57.80;;;;;;5076965;28;20285;-80
2023/09/04 04:31:19;;;;;;;2.67;2.40;;;21.70;57.90;;;;;;5076784;28;20210;-80
2023/09/04 04:33:46;;;;;;;3.70;2.70;;;21.70;58.00;;;;;;5080222;28;20190;-79
2023/09/04 04:36:13;;;;;;;3.85;2.95;;;21.70;58.30;;;;;;5079734;28;20318;-80
2023/09/04 04:38:40;;;;;;;2.60;2.40;;;21.70;58.40;;;;;;5063081;28;20185;-79
2023/09/04 04:41:08;;;;;;;3.08;2.78;;;21.60;58.40;;;;;;5079809;28;20275;-79
2023/09/04 04:43:36;;;;;;;2.90;2.70;;;21.60;58.40;;;;;;5080242;28;20629;-80
2023/09/04 04:46:03;;;;;;;3.40;2.47;;;21.60;58.60;;;;;;5080538;28;20190;-80
2023/09/04 04:48:31;;;;;;;3.67;2.53;;;21.70;58.80;;;;;;5080035;28;20645;-80
2023/09/04 04:50:59;;;;;;;3.42;2.80;;;21.60;58.70;;;;;;5079658;28;20304;-80
2023/09/04 04:53:26;;;;;;;2.95;2.70;;;21.60;58.50;;;;;;5080273;28;20190;-79
2023/09/04 04:55:54;;;;;;;2.80;2.60;;;21.60;58.30;;;;;;5079738;28;20630;-79
2023/09/04 04:58:21;;;;;;;3.10;2.83;;;21.60;58.30;;;;;;5079750;28;20281;-80
2023/09/04 05:00:48;;;;;;;4.00;2.90;;;21.60;58.10;;;;;;5079831;28;20214;-80
2023/09/04 05:03:15;;;;;;;2.88;2.67;;;21.60;58.00;;;;;;5079698;28;20190;-79
2023/09/04 05:05:48;;;;;;;4.28;2.53;;;21.60;58.00;;;;;;5079678;28;20229;-80
2023/09/04 05:08:15;;;;;;;3.50;2.70;;;21.50;58.10;;;;;;5079583;28;20202;-80
2023/09/04 05:10:43;;;;;;;3.40;2.92;;;21.60;58.00;;;;;;5062723;28;20217;-79
2023/09/04 05:13:11;;;;;;;3.55;2.50;;;21.50;58.00;;;;;;5079629;28;20194;-79
2023/09/04 05:15:39;;;;;;;3.72;2.65;;;21.50;57.90;;;;;;5080471;28;20237;-79
2023/09/04 05:18:07;;;;;;;3.47;2.80;;;21.50;57.90;;;;;;5079313;28;20225;-79
2023/09/04 05:20:37;;;;;;;5.72;2.75;;;21.50;57.50;;;;;;5079171;28;20218;-79
2023/09/04 05:23:06;;;;;;;3.60;2.92;;;21.40;57.20;;;;;;5079780;28;20198;-79
2023/09/04 05:25:33;;;;;;;2.60;2.40;;;21.40;57.10;;;;;;5079310;28;20645;-79
2023/09/04 05:28:00;;;;;;;2.63;2.42;;;21.40;57.10;;;;;;5079562;28;20671;-80
2023/09/04 05:30:27;;;;;;;3.42;2.50;;;21.40;57.10;;;;;;5079685;28;20225;-79
2023/09/04 05:32:54;;;;;;;3.83;2.70;;;21.40;57.30;;;;;;5078228;28;20198;-79
2023/09/04 05:35:21;;;;;;;4.43;2.65;;;21.30;57.10;;;;;;5079190;28;20564;-80
2023/09/04 05:37:48;;;;;;;2.70;2.50;;;21.30;57.10;;;;;;5078181;28;20255;-79
2023/09/04 05:40:17;;;;;;;5.10;2.58;;;21.30;57.50;;;;;;5096914;28;20190;-80
2023/09/04 05:42:44;;;;;;;3.63;2.80;;;21.30;57.30;;;;;;5078847;28;20721;-80
2023/09/04 05:45:11;;;;;;;3.00;2.70;;;21.40;57.50;;;;;;5080456;28;20293;-80
2023/09/04 05:47:38;;;;;;;4.47;2.40;;;21.40;57.60;;;;;;5081052;28;20198;-81
2023/09/04 05:50:07;;;;;;;2.58;2.38;;;21.40;57.70;;;;;;5079926;28;20232;-81
2023/09/04 05:52:35;;;;;;;2.63;2.30;;;21.50;57.90;;;;;;5079376;28;20208;-81
2023/09/04 05:55:02;;;;;;;2.60;2.38;;;21.60;58.00;;;;;;5079432;28;20214;-81
2023/09/04 05:57:31;;;;;;;3.50;2.50;;;21.60;58.00;;;;;;5079213;28;20233;-81
2023/09/04 05:59:58;;;;;;;2.70;2.50;;;21.60;58.00;;;;;;5080303;28;20195;-81
2023/09/04 06:02:26;;;;;;;3.22;2.60;;;21.80;58.10;;;;;;5078877;28;20248;-81
2023/09/04 06:04:54;;;;;;;3.40;2.83;;;21.70;58.70;;;;;;5079401;28;20633;-81
2023/09/04 06:07:21;;;;;;;2.65;2.40;;;21.90;58.00;;;;;;5081220;28;20243;-81
2023/09/04 06:09:48;;;;;;;3.10;2.67;;;22.00;57.70;;;;;;5079227;28;20645;-80
2023/09/04 06:12:15;;;;;;;2.70;2.50;;;22.20;57.70;;;;;;5079966;28;20653;-81
2023/09/04 06:14:44;;;;;;;5.63;2.55;;;22.30;57.30;;;;;;5079681;28;20198;-81
2023/09/04 06:17:11;;;;;;;3.50;2.50;;;22.40;56.90;;;;;;5079398;28;20229;-80
2023/09/04 06:19:38;;;;;;;3.47;2.65;;;22.40;56.80;;;;;;5079440;28;20648;-81
2023/09/04 06:22:05;;;;;;;2.72;2.53;;;22.40;56.90;;;;;;5077803;28;20278;-81
2023/09/04 06:24:33;;;;;;;2.58;2.38;;;22.50;57.00;;;;;;5077926;28;20190;-81
2023/09/04 06:27:00;;;;;;;2.70;2.50;;;22.50;57.00;;;;;;5077731;28;20183;-81
2023/09/04 06:29:27;;;;;;;2.65;2.45;;;22.60;56.90;;;;;;5079097;28;20248;-81
2023/09/04 06:31:55;;;;;;;2.88;2.63;;;22.70;57.30;;;;;;5079255;28;20252;-81
2023/09/04 06:34:22;;;;;;;2.90;2.67;;;23.00;56.50;;;;;;5079778;28;20198;-81
2023/09/04 06:36:49;;;;;;;2.70;2.50;;;23.20;56.10;;;;;;5062443;28;20225;-81
2023/09/04 06:39:16;;;;;;;3.47;3.17;;;23.40;55.60;;;;;;5077470;28;20269;-80
2023/09/04 06:41:44;;;;;;;2.90;2.70;;;23.50;55.30;;;;;;5077412;28;20275;-81
2023/09/04 06:44:11;;;;;;;2.97;2.72;;;23.70;54.80;;;;;;5077463;28;20205;-81
2023/09/04 06:46:38;;;;;;;5.53;3.35;;;23.80;54.70;;;;;;5077608;28;20255;-81
2023/09/04 06:49:07;;;;;;;3.72;3.03;;;24.00;54.40;;;;;;5077234;28;20648;-81
2023/09/04 06:51:34;;;;;;;2.97;2.78;;;24.10;54.20;;;;;;5077865;28;20209;-80
2023/09/04 06:54:03;;;;;;;2.78;2.58;;;24.30;54.00;;;;;;5077681;28;20194;-81
2023/09/04 06:56:31;;;;;;;2.88;2.58;;;24.30;53.70;;;;;;5078655;28;20214;-81
2023/09/04 06:58:58;;;;;;;3.38;2.90;;;24.40;53.70;;;;;;5078227;28;20205;-81
2023/09/04 07:01:25;;;;;;;2.90;2.70;;;24.60;53.50;;;;;;5077791;28;20229;-82
2023/09/04 07:03:52;;;;;;;3.00;2.80;;;24.70;53.40;;;;;;5077647;28;20193;-79
2023/09/04 07:06:20;;;;;;;3.42;3.10;;;24.70;53.20;;;;;;5077002;28;20641;-79
2023/09/04 07:08:47;;;;;;;3.58;2.97;;;24.90;53.10;;;;;;5076388;28;20194;-79
2023/09/04 07:11:14;;;;;;;3.63;3.20;;;24.90;52.90;;;;;;5076783;28;20551;-79
2023/09/04 07:13:41;;;;;;;3.10;2.90;;;25.00;52.70;;;;;;5076629;28;20255;-78
2023/09/04 07:16:08;;;;;;;3.85;3.45;;;25.10;52.60;;;;;;5076526;28;20216;-79
2023/09/04 07:18:37;;;;;;;3.38;3.08;;;25.10;52.50;;;;;;5076469;28;20268;-80
2023/09/04 07:21:04;;;;;;;3.50;3.15;;;25.20;52.40;;;;;;5076579;28;20629;-80
2023/09/04 07:23:33;;;;;;;3.58;3.10;;;25.30;52.30;;;;;;5076282;28;20202;-80
2023/09/04 07:26:01;;;;;;;3.58;3.10;;;25.30;52.10;;;;;;5077023;28;20648;-80
2023/09/04 07:28:28;;;;;;;3.50;3.20;;;25.40;52.10;;;;;;5076177;28;20233;-80
2023/09/04 07:31:08;;;;;;;3.72;3.42;;;25.40;52.00;;;;;;5076871;28;20222;-80
2023/09/04 07:33:35;;;;;;;3.50;3.20;;;25.50;51.90;;;;;;5079476;28;20196;-80
2023/09/04 07:36:02;;;;;;;3.90;3.50;;;25.60;51.80;;;;;;5080260;28;20225;-79
2023/09/04 07:38:29;;;;;;;3.50;3.20;;;25.60;51.60;;;;;;5080082;28;20207;-80
2023/09/04 07:41:01;;;;;;;3.90;3.50;;;25.70;51.50;;;;;;5078962;28;20201;-80
2023/09/04 07:43:29;;;;;;;4.22;3.05;;;25.80;51.40;;;;;;5078710;28;20197;-80
2023/09/04 07:45:56;;;;;;;4.18;3.63;;;25.90;51.90;;;;;;5078337;28;20200;-80
2023/09/04 07:48:23;;;;;;;3.78;3.40;;;25.90;51.10;;;;;;5077874;28;20225;-80
2023/09/04 07:50:52;;;;;;;3.40;3.10;;;26.00;50.90;;;;;;5076532;28;20274;-80
2023/09/04 07:53:19;;;;;;;4.28;3.35;;;26.00;50.70;;;;;;5076000;28;20194;-80
2023/09/04 07:55:46;;;;;;;3.60;3.30;;;26.10;50.60;;;;;;5059464;28;20320;-80
2023/09/04 07:58:14;;;;;;;3.75;3.40;;;26.20;50.50;;;;;;5076434;28;20208;-80
2023/09/04 08:00:45;;;;;;;3.55;3.25;;;26.20;50.50;;;;;;5096271;28;20213;-80
2023/09/04 08:03:12;;;;;;;3.65;3.30;;;26.20;50.40;;;;;;5078615;28;20200;-80
2023/09/04 08:05:39;;;;;;;3.35;3.05;;;26.30;49.90;;;;;;5078221;28;20557;-80
2023/09/04 08:08:09;;;;;;;3.53;3.03;;;26.40;49.80;;;;;;5080983;28;20198;-81
2023/09/04 08:10:39;;;;;;;3.20;3.00;;;26.40;49.80;;;;;;5081218;28;20274;-81
2023/09/04 08:13:08;;;;;;;3.53;3.22;;;26.50;49.60;;;;;;5080323;28;20218;-80
2023/09/04 08:15:36;;;;;;;3.20;3.00;;;26.60;49.60;;;;;;5080180;28;20296;-81
2023/09/04 08:18:06;;;;;;;3.42;3.13;;;26.60;49.40;;;;;;5079500;28;20193;-81
2023/09/04 08:20:33;;;;;;;3.58;3.08;;;26.60;49.30;;;;;;5079352;28;20220;-81
2023/09/04 08:23:00;;;;;;;3.10;2.90;;;26.70;49.30;;;;;;5062758;28;20322;-80
2023/09/04 08:25:27;;;;;;;3.38;3.08;;;26.70;49.20;;;;;;5079835;28;20189;-81
2023/09/04 08:27:54;;;;;;;3.45;2.95;;;26.70;48.90;;;;;;5079345;28;20225;-81
2023/09/04 08:30:22;;;;;;;3.30;3.00;;;26.70;48.80;;;;;;5079839;28;20219;-81
2023/09/04 08:32:50;;;;;;;3.88;3.00;;;26.80;48.90;;;;;;5079630;28;20185;-81
2023/09/04 08:35:18;;;;;;;3.15;2.90;;;26.80;49.10;;;;;;5080139;28;20225;-80
2023/09/04 08:37:45;;;;;;;3.30;3.00;;;26.80;49.10;;;;;;5079151;28;20587;-81
2023/09/04 08:40:13;;;;;;;3.38;3.08;;;26.90;49.00;;;;;;5079576;28;20201;-81
2023/09/04 08:42:40;;;;;;;4.63;3.20;;;26.90;49.10;;;;;;5087005;28;20570;-81
2023/09/04 08:45:08;;;;;;;3.20;2.90;;;26.90;49.00;;;;;;5088268;28;20209;-81
2023/09/04 08:47:37;;;;;;;3.22;2.88;;;27.00;49.10;;;;;;5070803;28;20197;-81
2023/09/04 08:50:07;;;;;;;2.92;2.72;;;27.00;49.00;;;;;;5085942;28;20256;-81
2023/09/04 08:52:36;;;;;;;3.00;2.70;;;27.10;49.00;;;;;;5083952;28;20197;-81
2023/09/04 08:55:03;;;;;;;4.43;2.58;;;27.10;48.80;;;;;;5083148;28;20220;-81
2023/09/04 08:57:30;;;;;;;2.75;2.53;;;27.10;48.80;;;;;;5079899;28;20213;-81
2023/09/04 08:59:57;;;;;;;2.78;2.55;;;27.20;48.80;;;;;;5080664;28;20644;-81
2023/09/04 09:02:24;;;;;;;2.80;2.60;;;27.20;48.70;;;;;;5082753;28;20213;-81
2023/09/04 09:04:51;;;;;;;2.92;2.70;;;27.20;48.60;;;;;;5081755;28;20208;-81
2023/09/04 09:07:20;;;;;;;3.80;2.83;;;27.20;48.50;;;;;;5080659;28;20272;-81
2023/09/04 09:09:48;;;;;;;3.70;2.80;;;27.30;48.40;;;;;;5078883;28;20575;-81
2023/09/04 09:12:15;;;;;;;2.78;2.58;;;27.30;48.40;;;;;;5078835;28;20646;-81
2023/09/04 09:14:42;;;;;;;2.95;2.75;;;27.30;48.30;;;;;;5078652;28;20197;-81
2023/09/04 09:17:10;;;;;;;2.85;2.65;;;27.40;48.30;;;;;;5079228;28;20213;-81
2023/09/04 09:19:38;;;;;;;3.63;3.10;;;27.40;48.20;;;;;;5078488;28;20227;-81
2023/09/04 09:22:10;;;;;;;2.70;2.50;;;27.40;48.20;;;;;;5078977;28;20576;-81
2023/09/04 09:24:51;;;;;;;2.78;2.58;;;27.40;48.10;;;;;;5082329;28;20204;-82
2023/09/04 09:27:19;;;;;;;3.13;2.72;;;27.40;48.10;;;;;;5079290;28;20589;-81
2023/09/04 09:29:47;;;;;;;2.90;2.60;;;27.40;48.10;;;;;;5078271;28;20205;-81
2023/09/04 09:32:15;;;;;;;2.90;2.70;;;27.40;48.00;;;;;;5078236;28;20213;-82
2023/09/04 09:34:48;;;;;;;2.85;2.63;;;27.40;47.90;;;;;;5077777;28;20194;-81
2023/09/04 09:37:15;;;;;;;3.00;2.70;;;27.40;47.90;;;;;;5078298;28;20210;-81
2023/09/04 09:39:42;;;;;;;2.90;2.70;;;27.50;48.00;;;;;;5078673;28;20198;-81
2023/09/04 09:42:11;;;;;;;2.85;2.65;;;27.40;47.90;;;;;;5078783;28;20295;-82
2023/09/04 09:44:38;;;;;;;2.65;2.45;;;27.50;48.00;;;;;;5079624;28;20447;-83
2023/09/04 09:47:07;;;;;;;2.90;2.63;;;27.50;48.00;;;;;;5079542;28;20340;-83
2023/09/04 09:49:35;;;;;;;3.17;2.92;;;27.40;47.90;;;;;;5078796;28;20198;-83
2023/09/04 09:52:02;;;;;;;3.10;2.80;;;27.40;48.10;;;;;;5078047;28;20304;-83
2023/09/04 09:54:36;;;;;;;3.17;2.90;;;27.50;48.10;;;;;;5080905;28;20296;-83
2023/09/04 09:57:07;;;;;;;2.80;2.60;;;27.40;48.10;;;;;;5079258;28;20209;-82
2023/09/04 09:59:36;;;;;;;2.95;2.65;;;27.40;48.10;;;;;;5078933;28;20620;-83
2023/09/04 10:02:03;;;;;;;2.60;2.40;;;27.40;48.10;;;;;;5079905;28;20217;-82
2023/09/04 10:04:31;;;;;;;3.10;2.90;;;27.40;48.10;;;;;;5078889;28;20193;-82
2023/09/04 10:06:59;;;;;;;2.53;2.33;;;27.40;48.10;;;;;;5079211;28;20195;-82
2023/09/04 10:09:27;;;;;;;2.88;2.60;;;27.40;48.20;;;;;;5079420;28;20205;-82
2023/09/04 10:12:04;;;;;;;2.90;2.70;;;27.40;48.30;;;;;;5081386;28;20209;-82
2023/09/04 10:14:36;;;;;;;2.35;2.15;;;27.30;48.30;;;;;;5078878;28;20254;-83
2023/09/04 10:17:03;;;;;;;3.28;2.60;;;27.30;48.40;;;;;;5062513;28;20667;-83
2023/09/04 10:19:34;;;;;;;3.05;2.75;;;27.30;48.50;;;;;;5077962;28;20197;-83
2023/09/04 10:22:03;;;;;;;3.45;2.65;;;27.30;48.50;;;;;;5078464;28;20209;-83
2023/09/04 10:24:36;;;;;;;2.80;2.35;;;27.20;48.50;;;;;;5079655;28;20232;-82
2023/09/04 10:27:05;;;;;;;2.97;2.75;;;27.20;48.60;;;;;;5062279;28;20194;-83
2023/09/04 10:29:33;;;;;;;2.80;2.60;;;27.20;48.70;;;;;;5078730;28;20193;-82
2023/09/04 10:32:01;;;;;;;2.80;2.60;;;27.20;48.80;;;;;;5078784;28;20239;-82
2023/09/04 10:34:29;;;;;;;2.90;2.65;;;27.20;48.80;;;;;;5079133;28;20198;-83
2023/09/04 10:36:55;;;;;;;2.90;2.70;;;27.20;48.90;;;;;;5079862;28;20217;-83
2023/09/04 10:39:22;;;;;;;2.80;2.60;;;27.10;48.90;;;;;;5078353;28;20193;-82
2023/09/04 10:41:49;;;;;;;2.92;2.70;;;27.10;49.00;;;;;;5078608;28;20585;-82
2023/09/04 10:44:47;;;;;;;2.60;2.40;;;27.10;49.10;;;;;;5079441;28;20204;-82
2023/09/04 10:47:16;;;;;;;2.63;2.42;;;27.00;49.20;;;;;;5078543;28;20186;-82
2023/09/04 10:49:44;;;;;;;2.70;2.50;;;27.00;49.30;;;;;;5079200;28;20597;-83
2023/09/04 10:52:11;;;;;;;2.70;2.50;;;26.90;49.30;;;;;;5077668;28;20221;-82
2023/09/04 10:54:40;;;;;;;2.58;2.38;;;26.90;49.50;;;;;;5076527;28;20234;-82
2023/09/04 10:57:10;;;;;;;2.80;2.60;;;26.80;49.60;;;;;;5076536;28;20217;-83
2023/09/04 11:00:00;;;;;;;2.58;2.38;;;26.80;49.70;;;;;;5076902;28;20269;-83
2023/09/04 11:02:30;;;;;;;2.60;2.40;;;26.80;49.90;;;;;;5076662;28;20222;-82
2023/09/04 11:04:57;;;;;;;2.80;2.60;;;26.70;49.90;;;;;;5076960;28;20246;-82
2023/09/04 11:07:26;;;;;;;2.60;2.40;;;26.70;50.00;;;;;;5078472;28;20232;-83
2023/09/04 11:09:53;;;;;;;2.50;2.30;;;26.70;50.10;;;;;;5077272;28;20664;-83
2023/09/04 11:12:22;;;;;;;2.80;2.60;;;26.70;50.20;;;;;;5076797;28;20217;-82
2023/09/04 11:14:52;;;;;;;2.70;2.50;;;26.60;50.20;;;;;;5076853;28;20189;-82
2023/09/04 11:17:22;;;;;;;2.70;2.50;;;26.60;50.40;;;;;;5075845;28;20237;-82
2023/09/04 11:19:51;;;;;;;2.67;2.47;;;26.60;50.40;;;;;;5075950;28;20652;-81
2023/09/04 11:22:20;;;;;;;2.40;2.20;;;26.60;50.40;;;;;;5075884;28;20241;-83
2023/09/04 11:24:49;;;;;;;2.63;2.42;;;26.60;50.50;;;;;;5077269;28;20204;-83
2023/09/04 11:27:16;;;;;;;2.50;2.30;;;26.60;50.60;;;;;;5076147;28;20198;-83
2023/09/04 11:29:43;;;;;;;2.58;2.38;;;26.60;50.70;;;;;;5076168;28;20189;-83
2023/09/04 11:32:10;;;;;;;2.60;2.40;;;26.60;50.70;;;;;;5076448;28;20209;-83
2023/09/04 11:34:38;;;;;;;2.67;2.47;;;26.60;50.70;;;;;;5077034;28;20208;-82
2023/09/04 11:37:06;;;;;;;2.60;2.40;;;26.60;50.70;;;;;;5077515;28;20201;-83
2023/09/04 11:39:33;;;;;;;2.47;2.28;;;26.60;50.70;;;;;;5076324;28;20201;-83
2023/09/04 11:42:01;;;;;;;2.60;2.40;;;26.60;50.70;;;;;;5078497;28;20267;-83
2023/09/04 11:44:31;;;;;;;2.50;2.30;;;26.60;50.80;;;;;;5081300;28;20201;-83
2023/09/04 11:46:58;;;;;;;2.63;2.42;;;26.60;50.90;;;;;;5080223;28;20200;-83
2023/09/04 11:49:25;;;;;;;2.60;2.40;;;26.60;50.80;;;;;;5080130;28;20197;-83
2023/09/04 11:51:53;;;;;;;2.80;2.60;;;26.60;50.90;;;;;;5080360;28;20221;-82
2023/09/04 11:54:30;;;;;;;2.25;2.05;;;26.60;51.00;;;;;;5079942;28;20600;-83
2023/09/04 11:56:59;;;;;;;2.33;2.15;;;26.60;51.00;;;;;;5079944;28;20221;-83
2023/09/04 11:59:26;;;;;;;2.70;2.50;;;26.60;51.10;;;;;;5080076;28;20632;-83
2023/09/04 12:01:53;;;;;;;2.22;2.13;;;26.60;51.10;;;;;;5079922;28;20557;-83
2023/09/04 12:04:20;;;;;;;2.25;2.13;;;26.60;51.20;;;;;;5079927;28;20234;-82
2023/09/04 12:06:47;;;;;;;2.75;2.55;;;26.60;51.20;;;;;;5079608;28;20198;-82
2023/09/04 12:09:14;;;;;;;2.45;2.25;;;26.60;51.20;;;;;;5079728;28;20225;-83
2023/09/04 12:11:42;;;;;;;2.40;2.20;;;26.50;51.20;;;;;;5079067;28;20577;-83
2023/09/04 12:14:11;;;;;;;2.40;2.20;;;26.50;51.30;;;;;;5078984;28;20193;-82
2023/09/04 12:16:39;;;;;;;2.45;2.25;;;26.60;51.40;;;;;;5079746;28;20204;-82
2023/09/04 12:19:07;;;;;;;2.50;2.30;;;26.50;52.00;;;;;;5079547;28;20205;-83
2023/09/04 12:21:34;;;;;;;2.50;2.30;;;26.50;51.50;;;;;;5079567;28;20217;-83
2023/09/04 12:24:01;;;;;;;2.63;2.42;;;26.50;51.50;;;;;;5079313;28;20197;-82
2023/09/04 12:26:28;;;;;;;2.65;2.45;;;26.50;51.50;;;;;;5097895;28;20208;-83
2023/09/04 12:28:56;;;;;;;2.50;2.30;;;26.50;51.60;;;;;;5079449;28;20200;-83
2023/09/04 12:31:23;;;;;;;2.50;2.30;;;26.40;51.60;;;;;;5079018;28;20213;-82
2023/09/04 12:33:51;;;;;;;2.60;2.40;;;26.50;51.80;;;;;;5080262;28;20194;-83
2023/09/04 12:36:21;;;;;;;2.50;2.30;;;26.40;51.80;;;;;;5079817;28;20239;-83
2023/09/04 12:38:48;;;;;;;2.25;2.13;;;26.40;51.90;;;;;;5078838;28;20304;-82
2023/09/04 12:41:16;;;;;;;2.60;2.40;;;26.40;52.30;;;;;;5079129;28;20220;-83
2023/09/04 12:43:42;;;;;;;2.35;2.15;;;26.30;52.00;;;;;;5080182;28;20197;-82
2023/09/04 12:46:11;;;;;;;2.70;2.50;;;26.40;52.10;;;;;;5079096;28;20189;-83
2023/09/04 12:48:38;;;;;;;2.78;2.58;;;26.40;52.10;;;;;;5081735;28;20193;-82
2023/09/04 12:51:05;;;;;;;2.10;2.00;;;26.30;52.10;;;;;;5084505;28;20304;-82